createdAt,value
2017-10-26T00:00:43.030Z,26.23
2017-10-26T00:03:11.281Z,26.00
2017-10-26T00:05:39.517Z,27.77
2017-10-26T00:08:07.605Z,26.73
2017-10-26T00:10:35.077Z,26.67
2017-10-26T00:13:02.539Z,26.33
2017-10-26T00:15:30.014Z,26.77
2017-10-26T00:17:58.336Z,26.43
2017-10-26T00:20:25.808Z,28.00
2017-10-26T00:22:53.491Z,25.20
2017-10-26T00:25:20.964Z,25.70
2017-10-26T00:27:49.202Z,26.43
2017-10-26T00:30:16.685Z,27.30
2017-10-26T00:32:44.168Z,26.43
2017-10-26T00:35:11.630Z,26.77
2017-10-26T00:37:39.109Z,25.27
2017-10-26T00:40:06.581Z,23.13
2017-10-26T00:42:34.067Z,26.60
2017-10-26T00:45:01.554Z,25.90
2017-10-26T00:47:29.150Z,23.50
2017-10-26T00:49:56.730Z,23.83
2017-10-26T00:52:24.204Z,23.10
2017-10-26T00:54:51.666Z,21.37
2017-10-26T00:57:19.144Z,22.80
2017-10-26T00:59:47.375Z,24.07
2017-10-26T01:02:15.009Z,23.70
2017-10-26T01:04:42.472Z,22.57
2017-10-26T01:07:10.012Z,23.20
2017-10-26T01:09:37.479Z,23.47
2017-10-26T01:12:04.956Z,23.90
2017-10-26T01:14:33.057Z,21.80
2017-10-26T01:17:01.293Z,21.20
2017-10-26T01:19:28.794Z,25.03
2017-10-26T01:21:56.260Z,24.03
2017-10-26T01:24:24.490Z,23.60
2017-10-26T01:26:52.362Z,22.80
2017-10-26T01:29:19.842Z,24.47
2017-10-26T01:31:48.997Z,24.20
2017-10-26T01:34:16.502Z,21.23
2017-10-26T01:36:44.741Z,23.67
2017-10-26T01:39:12.229Z,23.40
2017-10-26T01:41:39.689Z,23.30
2017-10-26T01:44:07.937Z,25.90
2017-10-26T01:46:35.505Z,26.87
2017-10-26T01:49:03.035Z,26.43
2017-10-26T01:51:30.637Z,25.30
2017-10-26T01:53:58.116Z,27.80
2017-10-26T01:56:26.372Z,25.17
2017-10-26T01:58:53.833Z,25.67
2017-10-26T02:01:22.082Z,27.37
2017-10-26T02:03:49.642Z,24.57
2017-10-26T02:06:17.168Z,25.03
2017-10-26T02:08:44.638Z,24.80
2017-10-26T02:11:12.106Z,25.03
2017-10-26T02:13:39.598Z,25.80
2017-10-26T02:16:07.818Z,25.77
2017-10-26T02:18:35.294Z,26.00
2017-10-26T02:21:02.762Z,23.83
2017-10-26T02:23:30.244Z,23.50
2017-10-26T02:25:58.479Z,26.20
2017-10-26T02:28:47.748Z,25.40
2017-10-26T02:31:27.109Z,26.50
2017-10-26T02:33:55.372Z,26.27
2017-10-26T02:36:22.805Z,26.17
2017-10-26T02:38:50.284Z,26.93
2017-10-26T02:41:17.761Z,26.53
2017-10-26T02:43:45.236Z,26.67
2017-10-26T02:46:13.502Z,26.00
2017-10-26T02:48:41.722Z,26.73
2017-10-26T02:51:09.216Z,26.60
2017-10-26T02:53:37.525Z,27.23
2017-10-26T02:56:05.138Z,25.90
2017-10-26T02:58:32.700Z,25.70
2017-10-26T03:01:00.326Z,25.87
2017-10-26T03:03:27.843Z,27.00
2017-10-26T03:05:55.297Z,25.70
2017-10-26T03:08:23.560Z,26.00
2017-10-26T03:10:51.022Z,25.77
2017-10-26T03:13:18.497Z,24.30
2017-10-26T03:15:46.769Z,24.23
2017-10-26T03:18:15.014Z,25.07
2017-10-26T03:20:42.494Z,25.33
2017-10-26T03:23:11.589Z,24.90
2017-10-26T03:25:39.173Z,24.30
2017-10-26T03:28:07.407Z,26.57
2017-10-26T03:30:34.882Z,24.80
2017-10-26T03:33:03.106Z,25.47
2017-10-26T03:35:30.582Z,26.90
2017-10-26T03:37:58.040Z,24.27
2017-10-26T03:40:25.554Z,26.00
2017-10-26T03:42:53.116Z,26.00
2017-10-26T03:45:20.758Z,25.70
2017-10-26T03:47:48.992Z,26.20
2017-10-26T03:50:16.466Z,26.07
2017-10-26T03:52:43.933Z,24.60
2017-10-26T03:55:12.158Z,25.30
2017-10-26T03:57:39.697Z,25.37
2017-10-26T04:00:07.173Z,24.57
2017-10-26T04:02:34.656Z,24.23
2017-10-26T04:05:02.289Z,24.93
2017-10-26T04:07:29.801Z,24.60
2017-10-26T04:09:57.376Z,25.00
2017-10-26T04:12:25.637Z,24.90
2017-10-26T04:14:54.006Z,23.63
2017-10-26T04:17:21.525Z,22.83
2017-10-26T04:19:49.029Z,22.70
2017-10-26T04:22:16.504Z,24.00
2017-10-26T04:24:44.764Z,23.10
2017-10-26T04:27:12.977Z,24.07
2017-10-26T04:29:40.568Z,24.50
2017-10-26T04:32:08.612Z,24.73
2017-10-26T04:34:36.232Z,21.53
2017-10-26T04:37:04.464Z,23.07
2017-10-26T04:39:31.954Z,22.07
2017-10-26T04:42:01.050Z,21.20
2017-10-26T04:44:28.527Z,23.97
2017-10-26T04:46:56.774Z,24.00
2017-10-26T04:49:24.249Z,22.80
2017-10-26T04:51:52.477Z,22.30
2017-10-26T04:54:19.964Z,24.37
2017-10-26T04:56:47.529Z,24.03
2017-10-26T04:59:15.017Z,24.00
2017-10-26T05:01:42.492Z,22.80
2017-10-26T05:04:09.949Z,23.60
2017-10-26T05:06:37.426Z,23.27
2017-10-26T05:09:04.915Z,22.17
2017-10-26T05:11:33.146Z,23.07
2017-10-26T05:14:00.632Z,24.70
2017-10-26T05:16:28.105Z,24.03
2017-10-26T05:18:55.570Z,22.63
2017-10-26T05:21:23.822Z,23.43
2017-10-26T05:23:52.032Z,22.90
2017-10-26T05:26:20.274Z,23.07
2017-10-26T05:28:48.150Z,23.07
2017-10-26T05:31:15.602Z,23.60
2017-10-26T05:33:43.068Z,22.73
2017-10-26T05:36:11.464Z,22.20
2017-10-26T05:38:39.776Z,20.67
2017-10-26T05:41:07.461Z,20.80
2017-10-26T05:43:35.037Z,20.90
2017-10-26T05:46:02.626Z,21.90
2017-10-26T05:48:30.105Z,21.30
2017-10-26T05:50:57.588Z,21.37
2017-10-26T05:53:25.048Z,22.70
2017-10-26T05:55:52.527Z,22.07
2017-10-26T05:58:20.770Z,20.57
2017-10-26T06:00:48.244Z,21.40
2017-10-26T06:03:15.702Z,21.63
2017-10-26T06:05:43.201Z,21.00
2017-10-26T06:08:10.925Z,23.27
2017-10-26T06:10:39.165Z,22.00
2017-10-26T06:13:06.636Z,22.30
2017-10-26T06:15:34.105Z,22.50
2017-10-26T06:18:01.580Z,22.53
2017-10-26T06:20:29.838Z,23.23
2017-10-26T06:22:57.413Z,23.93
2017-10-26T06:25:24.941Z,22.03
2017-10-26T06:27:52.590Z,22.57
2017-10-26T06:30:20.150Z,21.73
2017-10-26T06:32:47.717Z,21.60
2017-10-26T06:35:15.332Z,20.13
2017-10-26T06:37:43.582Z,21.37
2017-10-26T06:40:11.808Z,21.60
2017-10-26T06:42:39.292Z,22.27
2017-10-26T06:45:06.765Z,20.60
2017-10-26T06:47:34.253Z,20.60
2017-10-26T06:50:02.498Z,22.50
2017-10-26T06:52:29.957Z,21.60
2017-10-26T06:54:59.047Z,20.63
2017-10-26T06:57:26.514Z,21.17
2017-10-26T06:59:54.031Z,20.60
2017-10-26T07:02:21.499Z,20.70
2017-10-26T07:04:48.968Z,21.60
2017-10-26T07:07:16.457Z,20.60
2017-10-26T07:09:44.702Z,20.00
2017-10-26T07:12:12.177Z,18.83
2017-10-26T07:14:39.637Z,18.20
2017-10-26T07:17:07.125Z,16.70
2017-10-26T07:19:34.594Z,18.93
2017-10-26T07:22:02.068Z,19.13
2017-10-26T07:24:29.543Z,18.80
2017-10-26T07:26:57.033Z,19.00
2017-10-26T07:29:24.493Z,20.10
2017-10-26T07:31:52.814Z,17.63
2017-10-26T07:34:20.365Z,19.07
2017-10-26T07:36:48.038Z,18.70
2017-10-26T07:39:15.598Z,19.60
2017-10-26T07:41:43.088Z,18.80
2017-10-26T07:44:10.564Z,19.07
2017-10-26T07:46:38.812Z,17.57
2017-10-26T07:49:06.300Z,18.57
2017-10-26T07:51:34.636Z,19.13
2017-10-26T07:54:02.118Z,19.13
2017-10-26T07:56:29.646Z,18.20
2017-10-26T07:58:57.166Z,16.70
2017-10-26T08:01:24.641Z,17.60
2017-10-26T08:03:52.306Z,18.50
2017-10-26T08:06:19.795Z,18.30
2017-10-26T08:08:47.265Z,17.07
2017-10-26T08:11:14.806Z,18.13
2017-10-26T08:13:43.165Z,15.77
2017-10-26T08:16:10.717Z,16.87
2017-10-26T08:18:38.218Z,17.67
2017-10-26T08:21:05.688Z,16.30
2017-10-26T08:23:33.940Z,17.00
2017-10-26T08:26:02.914Z,17.10
2017-10-26T08:28:30.406Z,17.27
2017-10-26T08:30:57.997Z,16.03
2017-10-26T08:33:25.488Z,15.60
2017-10-26T08:35:53.100Z,16.93
2017-10-26T08:38:20.592Z,15.80
2017-10-26T08:40:48.107Z,15.80
2017-10-26T08:43:16.347Z,16.10
2017-10-26T08:45:43.820Z,15.20
2017-10-26T08:48:11.283Z,14.80
2017-10-26T08:50:38.771Z,15.07
2017-10-26T08:53:06.241Z,13.77
2017-10-26T08:55:33.724Z,14.20
2017-10-26T08:58:01.207Z,15.50
2017-10-26T09:00:28.680Z,14.47
2017-10-26T09:02:56.950Z,12.60
2017-10-26T09:05:25.191Z,13.47
2017-10-26T09:07:52.673Z,13.50
2017-10-26T09:10:21.409Z,12.00
2017-10-26T09:12:48.937Z,12.30
2017-10-26T09:15:17.182Z,10.23
2017-10-26T09:17:45.434Z,10.87
2017-10-26T09:20:12.948Z,10.23
2017-10-26T09:22:40.414Z,10.93
2017-10-26T09:25:07.889Z,10.73
2017-10-26T09:27:35.373Z,10.60
2017-10-26T09:30:03.019Z,11.30
2017-10-26T09:32:30.701Z,11.70
2017-10-26T09:34:58.161Z,10.43
2017-10-26T09:37:25.849Z,10.30
2017-10-26T09:39:54.082Z,11.40
2017-10-26T09:42:21.593Z,11.17
2017-10-26T09:44:49.822Z,10.37
2017-10-26T09:47:17.285Z,10.40
2017-10-26T09:49:44.761Z,10.07
2017-10-26T09:52:12.249Z,11.10
2017-10-26T09:54:39.765Z,10.90
2017-10-26T09:57:08.739Z,11.70
2017-10-26T09:59:36.216Z,11.07
2017-10-26T10:02:05.182Z,11.80
2017-10-26T10:04:32.674Z,11.73
2017-10-26T10:07:00.894Z,11.60
2017-10-26T10:09:28.398Z,11.70
2017-10-26T10:11:55.914Z,10.57
2017-10-26T10:14:23.442Z,11.17
2017-10-26T10:16:51.695Z,11.57
2017-10-26T10:19:19.156Z,10.57
2017-10-26T10:21:46.624Z,11.20
2017-10-26T10:24:14.863Z,10.77
2017-10-26T10:26:42.362Z,10.60
2017-10-26T10:29:10.590Z,11.33
2017-10-26T10:31:38.177Z,11.10
2017-10-26T10:34:06.426Z,11.00
2017-10-26T10:36:34.047Z,10.90
2017-10-26T10:39:01.524Z,10.83
2017-10-26T10:41:28.974Z,11.23
2017-10-26T10:43:56.498Z,10.27
2017-10-26T10:46:24.725Z,10.90
2017-10-26T10:48:52.201Z,10.20
2017-10-26T10:51:21.275Z,10.00
2017-10-26T10:53:48.818Z,10.47
2017-10-26T10:56:16.408Z,11.23
2017-10-26T10:58:43.892Z,10.60
2017-10-26T11:01:12.165Z,9.63
2017-10-26T11:03:39.649Z,10.10
2017-10-26T11:06:07.125Z,10.33
2017-10-26T11:08:34.584Z,11.23
2017-10-26T11:11:02.049Z,10.07
2017-10-26T11:13:29.647Z,9.27
2017-10-26T11:15:57.101Z,11.30
2017-10-26T11:18:24.574Z,11.03
2017-10-26T11:20:52.805Z,10.80
2017-10-26T11:23:20.299Z,10.70
2017-10-26T11:25:48.693Z,11.57
2017-10-26T11:28:17.121Z,10.60
2017-10-26T11:30:44.772Z,10.60
2017-10-26T11:33:12.282Z,10.33
2017-10-26T11:35:41.382Z,11.90
2017-10-26T11:38:09.625Z,11.53
2017-10-26T11:40:38.631Z,11.03
2017-10-26T11:43:07.607Z,11.90
2017-10-26T11:45:35.857Z,10.43
2017-10-26T11:48:03.345Z,10.37
2017-10-26T11:50:31.596Z,10.97
2017-10-26T11:52:59.067Z,9.40
2017-10-26T11:55:26.664Z,8.87
2017-10-26T11:57:55.317Z,8.60
2017-10-26T12:00:22.785Z,10.20
2017-10-26T12:02:50.277Z,9.43
2017-10-26T12:05:17.779Z,9.33
2017-10-26T12:07:45.240Z,10.13
2017-10-26T12:10:12.739Z,8.80
2017-10-26T12:12:40.961Z,8.23
2017-10-26T12:15:08.515Z,8.37
2017-10-26T12:17:36.086Z,8.57
2017-10-26T12:20:03.736Z,8.77
2017-10-26T12:22:31.240Z,8.70
2017-10-26T12:24:59.638Z,8.83
2017-10-26T12:27:27.121Z,8.07
2017-10-26T12:29:54.583Z,7.40
2017-10-26T12:32:22.185Z,8.00
2017-10-26T12:34:50.925Z,8.70
2017-10-26T12:37:18.454Z,7.67
2017-10-26T12:39:47.434Z,7.20
2017-10-26T12:42:15.678Z,7.10
2017-10-26T12:44:43.170Z,7.70
2017-10-26T12:47:11.412Z,6.47
2017-10-26T12:49:38.918Z,7.80
2017-10-26T12:52:07.594Z,7.80
2017-10-26T12:54:35.086Z,8.10
2017-10-26T12:57:02.573Z,7.87
2017-10-26T12:59:30.059Z,7.57
2017-10-26T13:01:58.284Z,7.20
2017-10-26T13:04:25.979Z,6.90
2017-10-26T13:06:53.508Z,6.40
2017-10-26T13:09:21.169Z,6.50
2017-10-26T13:11:48.658Z,6.90
2017-10-26T13:14:16.891Z,7.40
2017-10-26T13:16:44.499Z,7.50
2017-10-26T13:19:12.743Z,6.80
2017-10-26T13:21:40.224Z,7.17
2017-10-26T13:24:07.693Z,7.87
2017-10-26T13:26:36.073Z,7.50
2017-10-26T13:29:04.428Z,8.53
2017-10-26T13:31:33.413Z,9.87
2017-10-26T13:34:02.413Z,9.90
2017-10-26T13:36:29.966Z,9.50
2017-10-26T13:38:59.106Z,8.00
2017-10-26T13:41:26.706Z,9.77
2017-10-26T13:43:54.197Z,8.30
2017-10-26T13:46:22.431Z,8.70
2017-10-26T13:48:49.905Z,10.00
2017-10-26T13:51:17.408Z,10.80
2017-10-26T13:53:45.642Z,10.90
2017-10-26T13:56:13.881Z,9.47
2017-10-26T13:58:41.367Z,9.03
2017-10-26T14:01:08.843Z,7.87
2017-10-26T14:03:37.056Z,9.00
2017-10-26T14:06:04.589Z,10.27
2017-10-26T14:08:32.817Z,9.60
2017-10-26T14:11:00.310Z,10.60
2017-10-26T14:13:27.894Z,10.63
2017-10-26T14:15:56.152Z,10.30
2017-10-26T14:18:25.114Z,9.80
2017-10-26T14:20:52.605Z,10.30
2017-10-26T14:23:21.441Z,10.03
2017-10-26T14:25:49.001Z,11.90
2017-10-26T14:28:16.496Z,11.70
2017-10-26T14:30:44.124Z,11.40
2017-10-26T14:33:11.605Z,10.60
2017-10-26T14:35:39.103Z,11.40
2017-10-26T14:38:06.587Z,12.10
2017-10-26T14:40:34.074Z,11.30
2017-10-26T14:43:01.582Z,11.00
2017-10-26T14:45:29.061Z,12.07
2017-10-26T14:47:56.721Z,11.23
2017-10-26T14:50:24.343Z,11.37
2017-10-26T14:52:52.566Z,11.30
2017-10-26T14:55:20.809Z,12.13
2017-10-26T14:57:48.280Z,10.60
2017-10-26T15:00:15.791Z,10.87
2017-10-26T15:02:43.253Z,11.80
2017-10-26T15:05:11.500Z,13.13
2017-10-26T15:07:38.972Z,11.73
2017-10-26T15:10:06.435Z,12.37
2017-10-26T15:12:33.923Z,12.40
2017-10-26T15:15:01.389Z,11.83
2017-10-26T15:17:28.875Z,11.80
2017-10-26T15:19:56.358Z,12.20
2017-10-26T15:22:24.039Z,11.97
2017-10-26T15:24:52.292Z,11.93
2017-10-26T15:27:19.771Z,11.00
2017-10-26T15:29:48.033Z,11.63
2017-10-26T15:32:16.997Z,11.47
2017-10-26T15:34:44.483Z,11.70
2017-10-26T15:37:11.946Z,11.00
2017-10-26T15:39:39.420Z,11.97
2017-10-26T15:42:06.881Z,11.60
2017-10-26T15:44:38.256Z,11.80
2017-10-26T15:47:05.734Z,10.63
2017-10-26T15:49:33.225Z,12.70
2017-10-26T15:52:00.708Z,10.80
2017-10-26T15:54:28.957Z,11.77
2017-10-26T15:56:57.194Z,12.20
2017-10-26T15:59:24.796Z,13.23
2017-10-26T16:01:52.259Z,11.83
2017-10-26T16:04:20.524Z,14.20
2017-10-26T16:06:48.789Z,13.27
2017-10-26T16:09:16.252Z,14.13
2017-10-26T16:11:43.713Z,13.50
2017-10-26T16:14:11.954Z,16.20
2017-10-26T16:16:39.436Z,16.53
2017-10-26T16:19:07.066Z,17.40
2017-10-26T16:21:34.549Z,17.90
2017-10-26T16:24:02.018Z,18.50
2017-10-26T16:26:30.257Z,18.37
2017-10-26T16:28:57.741Z,17.77
2017-10-26T16:31:25.217Z,19.10
2017-10-26T16:33:53.471Z,17.70
2017-10-26T16:36:20.949Z,18.90
2017-10-26T16:38:49.175Z,19.30
2017-10-26T16:41:16.694Z,18.83
2017-10-26T16:43:44.170Z,19.73
2017-10-26T16:46:11.662Z,18.93
2017-10-26T16:48:39.337Z,20.33
2017-10-26T16:51:08.329Z,19.80
2017-10-26T16:53:35.816Z,20.13
2017-10-26T16:56:04.150Z,20.00
2017-10-26T16:58:31.681Z,20.70
2017-10-26T17:00:59.150Z,19.80
2017-10-26T17:03:26.767Z,20.80
2017-10-26T17:05:55.003Z,20.57
2017-10-26T17:08:22.484Z,19.63
2017-10-26T17:10:50.721Z,21.40
2017-10-26T17:13:18.205Z,22.40
2017-10-26T17:15:45.883Z,20.20
2017-10-26T17:18:14.114Z,20.43
2017-10-26T17:20:41.610Z,19.83
2017-10-26T17:23:09.845Z,19.23
2017-10-26T17:25:37.350Z,20.80
2017-10-26T17:28:05.600Z,20.63
2017-10-26T17:30:33.845Z,21.40
2017-10-26T17:33:01.337Z,21.67
2017-10-26T17:35:29.568Z,22.63
2017-10-26T17:37:57.065Z,22.87
2017-10-26T17:40:25.349Z,22.03
2017-10-26T17:42:52.837Z,22.77
2017-10-26T17:45:21.084Z,21.03
2017-10-26T17:47:49.326Z,21.70
2017-10-26T17:50:17.546Z,22.80
2017-10-26T17:52:45.793Z,21.07
2017-10-26T17:57:47.895Z,22.70
2017-10-26T18:00:15.366Z,23.57
2017-10-26T18:02:43.684Z,22.83
2017-10-26T18:05:11.244Z,23.50
2017-10-26T18:07:38.717Z,22.87
2017-10-26T18:10:06.377Z,21.77
2017-10-26T18:12:33.847Z,21.13
2017-10-26T18:15:02.086Z,22.20
2017-10-26T18:17:41.876Z,23.40
2017-10-26T18:20:13.589Z,26.47
2017-10-26T18:22:41.067Z,27.10
2017-10-26T18:25:10.677Z,18.00
2017-10-26T18:27:38.148Z,14.33
2017-10-26T18:30:06.021Z,14.50
2017-10-26T18:32:34.423Z,13.60
2017-10-26T18:35:01.906Z,12.00
2017-10-26T18:37:29.723Z,11.80
2017-10-26T18:39:57.254Z,11.97
2017-10-26T18:42:24.908Z,12.60
2017-10-26T18:44:52.401Z,13.37
2017-10-26T18:47:21.011Z,18.30
2017-10-26T18:49:49.587Z,20.93
2017-10-26T18:52:18.096Z,24.13
2017-10-26T18:54:45.578Z,28.60
2017-10-26T18:57:13.072Z,25.33
2017-10-26T18:59:41.494Z,28.80
2017-10-26T19:02:08.994Z,31.97
2017-10-26T19:04:37.235Z,27.07
2017-10-26T19:07:04.723Z,27.23
2017-10-26T19:09:32.997Z,28.57
2017-10-26T19:12:00.671Z,29.40
2017-10-26T19:14:28.954Z,20.60
2017-10-26T19:16:57.205Z,16.40
2017-10-26T19:19:26.212Z,13.60
2017-10-26T19:21:53.694Z,15.40
2017-10-26T19:24:21.177Z,15.40
2017-10-26T19:26:48.789Z,14.20
2017-10-26T19:29:17.067Z,14.07
2017-10-26T19:31:44.539Z,14.00
2017-10-26T19:34:18.544Z,15.27
2017-10-26T19:36:46.097Z,15.27
2017-10-26T19:39:14.369Z,15.50
2017-10-26T19:41:42.128Z,18.20
2017-10-26T19:44:09.647Z,20.97
2017-10-26T19:46:37.670Z,31.30
2017-10-26T19:49:05.971Z,23.50
2017-10-26T19:51:33.582Z,20.13
2017-10-26T19:54:01.200Z,22.60
2017-10-26T19:56:29.068Z,51.17
2017-10-26T19:58:56.733Z,62.90
2017-10-26T20:01:24.485Z,65.10
2017-10-26T20:03:51.997Z,72.67
2017-10-26T20:06:20.218Z,75.47
2017-10-26T20:08:47.790Z,76.93
2017-10-26T20:11:15.343Z,77.33
2017-10-26T20:13:42.869Z,75.80
2017-10-26T20:16:10.400Z,77.40
2017-10-26T20:18:37.888Z,79.77
2017-10-26T20:21:06.208Z,70.50
2017-10-26T20:23:34.321Z,68.40
2017-10-26T20:26:02.565Z,68.87
2017-10-26T20:28:30.075Z,65.00
2017-10-26T20:30:57.574Z,70.53
2017-10-26T20:33:25.427Z,60.40
2017-10-26T20:35:52.964Z,58.93
2017-10-26T20:38:20.554Z,68.90
2017-10-26T20:40:49.584Z,73.77
2017-10-26T20:43:17.434Z,66.30
2017-10-26T20:45:44.906Z,72.50
2017-10-26T20:48:13.182Z,61.13
2017-10-26T20:50:47.049Z,54.67
2017-10-26T20:53:20.378Z,56.63
2017-10-26T20:55:54.400Z,36.07
2017-10-26T20:58:27.885Z,30.57
2017-10-26T21:01:02.167Z,29.60
2017-10-26T21:03:35.393Z,27.30
2017-10-26T21:06:09.333Z,25.10
2017-10-26T21:08:42.562Z,20.33
2017-10-26T21:11:15.819Z,17.27
2017-10-26T21:13:49.050Z,15.97
2017-10-26T21:16:16.715Z,14.57
2017-10-26T21:18:44.203Z,14.23
2017-10-26T21:21:12.573Z,15.77
2017-10-26T21:23:41.570Z,14.53
2017-10-26T21:26:09.141Z,14.57
2017-10-26T21:28:37.597Z,14.00
2017-10-26T21:31:05.105Z,15.23
2017-10-26T21:33:38.200Z,14.87
2017-10-26T21:36:05.697Z,15.63
2017-10-26T21:38:34.686Z,15.90
2017-10-26T21:41:02.205Z,13.77
2017-10-26T21:43:29.692Z,13.43
2017-10-26T21:45:57.178Z,12.00
2017-10-26T21:48:24.678Z,11.50
2017-10-26T21:50:52.146Z,11.57
2017-10-26T21:53:19.636Z,12.63
2017-10-26T21:55:47.127Z,13.10
2017-10-26T21:58:15.390Z,12.77
2017-10-26T22:00:43.659Z,13.27
2017-10-26T22:03:11.984Z,13.00
2017-10-26T22:05:40.367Z,12.20
2017-10-26T22:08:07.865Z,11.43
2017-10-26T22:10:35.392Z,11.03
2017-10-26T22:13:02.958Z,12.47
2017-10-26T22:15:30.465Z,12.03
2017-10-26T22:17:58.783Z,12.13
2017-10-26T22:20:27.482Z,12.37
2017-10-26T22:22:55.225Z,13.67
2017-10-26T22:25:23.560Z,13.03
2017-10-26T22:27:51.916Z,13.63
2017-10-26T22:30:20.185Z,13.80
2017-10-26T22:32:48.170Z,15.20
2017-10-26T22:35:15.854Z,16.30
2017-10-26T22:37:44.102Z,16.90
2017-10-26T22:40:12.443Z,16.23
2017-10-26T22:42:39.947Z,15.97
2017-10-26T22:45:07.931Z,16.90
2017-10-26T22:47:36.303Z,14.90
2017-10-26T22:50:04.846Z,14.77
2017-10-26T22:52:33.032Z,14.57
2017-10-26T22:55:00.669Z,13.87
2017-10-26T22:57:29.177Z,14.73
2017-10-26T22:59:56.724Z,22.77
2017-10-26T23:02:24.200Z,52.50
2017-10-26T23:04:58.810Z,39.77
2017-10-26T23:07:26.284Z,22.83
2017-10-26T23:09:53.830Z,15.97
2017-10-26T23:12:21.305Z,17.20
2017-10-26T23:14:49.563Z,17.20
2017-10-26T23:17:17.037Z,20.03
2017-10-26T23:19:45.279Z,19.70
2017-10-26T23:22:12.762Z,18.97
2017-10-26T23:24:40.253Z,20.70
2017-10-26T23:27:07.740Z,20.77
2017-10-26T23:29:35.254Z,19.70
2017-10-26T23:32:03.484Z,20.70
2017-10-26T23:34:31.050Z,21.10
2017-10-26T23:36:58.517Z,23.10
2017-10-26T23:39:26.004Z,21.40
2017-10-26T23:41:54.245Z,22.27
2017-10-26T23:44:21.729Z,21.53
2017-10-26T23:46:49.973Z,21.57
2017-10-26T23:49:17.627Z,23.50
2017-10-26T23:51:45.254Z,21.80
2017-10-26T23:54:12.732Z,23.30
2017-10-26T23:56:40.215Z,21.23
2017-10-26T23:59:08.463Z,20.93
